New Salem, MA (01355)

1:16 PM EDT on October 02, 2014 (GMT -0400)
West Pelham Road | Change Station
CLOSE
Current Station
Personal Weather Station
Location: Shutesbury, MA
Elevation: 1150 ft
Nearby Weather Stations

Elev 1150 ft 42.44 °N, 72.43 °W | Updated 1 minute ago

Overcast
Overcast
56.2 °F
Feels Like 56.2 °F
N
0.0
Wind Variable Wind from NW
Gusts 1.0 mph

Today
High -- | Low -- °F
--% Chance of Precip.
Yesterday
High -- | Low -- °F
Precip. -- in
6:47 AM 6:29 PM
First Quarter, 60% visible
Pressure 30.16 in
Visibility 10.0 miles
Clouds Overcast 1200 ft
Dew Point 55 °F
Humidity 96%
Rainfall 0.22 in
Snow Depth Not available.
UV 2 out of 12
Pollen 1.10 out of 12
Air Quality Not available.
Flu Activity Not available.
METAR KORE 021652Z AUTO VRB03KT 10SM OVC012 15/12 A3015 RMK AO2 SLP211 T01500117

More Conditions Fewer Conditions

Pressure 30.16 in
Visibility 10.0 miles
Clouds Overcast 1200 ft
Dew Point 55 °F
Humidity 96%
Rainfall 0.22 in
Snow Depth Not available.
UV 2 out of 12
Pollen 1.10 out of 12
Air Quality Not available.
Flu Activity Not available.
METAR KORE 021652Z AUTO VRB03KT 10SM OVC012 15/12 A3015 RMK AO2 SLP211 T01500117

More Conditions Fewer Conditions

10-Day Weather Forecast

Almanac

Astronomy

Oct. 02, 2014 Rise Set
Actual Time 6:47 AM EDT 6:29 PM EDT
Civil Twilight 6:19 AM EDT 6:57 PM EDT
Nautical Twilight 5:46 AM EDT 7:29 PM EDT
Astronomical Twilight 5:13 AM EDT 8:02 PM EDT
Moon 2:39 PM EDT No Moon Set
Length of Visible Light 12h 37m
Length of Day
11h 41m
Tomorrow will be 2m 50s shorter.
First Quarter, 60% of the Moon is Illuminated
Today
First Quarter
Oct 8
Full
Oct 15
Last Quarter
Oct 23
New
Oct 30
First Quarter

Today's Extremes

State Highs State Lows

Community

WunderPhotos

Upload Photos

1,758,300 photos uploaded!

Nearby

Air Quality

  Air Quality AQ Index Pollutant
Thursday Good
PM2.5
Thursday Good
OZONE

Snow Depth

Station Depth Elevation
No new snow has been reported.

Earthquake Activity

City Distance Mag. Time & Date
No recent earthquake activity has been reported nearby.
Minimum magnitude displayed is 2.5.

Coastal Water Temperatures

Place Temperature
No Stations Reporting

Nearby Weather Stations